Aeroporto :
LOGIN :

Iscrizione | Disclaimer

   EN    FR    IT 

 










Sommario :    VFR   VFR Marginale   IFR   IFR Intensivo   IFR Molto Intensivo
Visibilità : 
Base nubi : 
>= 8 km
>= 3000ft
5 / 8 km
1000 / 3000 ft
1500m / 5 km
500 / 1000 ft
800 / 1500m
200 / 500 ft
< 800m
< 200 ft
Simboli :   Temporali  Nebbia  Neve Forte  Precipitazioni Forti  Vento > 20 kt
SIGMETs :   Varie  Temporali  Ghiacco  Turbolenza  Onda orograficha  Ceneri Vulcaniche






- Altitudine del aeroporto : 102 ft
- Codice IATA : EXT


EGTE - Exeter

ULTIMO METAR :
  • 020650Z 27003KT 9999 FEW012 01/00 Q0988

METARs OBSOLETI :
  • 020620Z VRB01KT 9999 SCT012 01/00 Q0988
  • 020550Z VRB02KT 9999 SCT012 01/00 Q0988
  • 020520Z 32004KT 280V340 9999 SCT012 01/00 Q0987
  • 012050Z VRB03KT 9999 -SHRA BKN016 04/03 Q0987
  • 020220Z 30004KT 280V340 9999 FEW003 SCT018 01/01 Q0987

TAF TAF EGTE
Valido dal 02 a 06 ore il 02 a 15 ore UTC


020558Z 0206/0215 30009KT 9999 SCT020
PROB30
TEMPO 0206/0210 8000 SHRA BKN012
PROB30
TEMPO 0212/0215 6000 SHRA BKN014



MetMap, La meteo Aeronautica in un colpo d'occhio ! - Copyright ORBIFLY Dicembre 2007 - Disclaimer

ORBIFLY MET'MAP TEAM :

Programmazione e sviluppo : Alexandra Zaïnal
Concezione : Baudouin d'Aumeries
Supporto tecnico e logistico : Manuel Goepfert
Aiuto : Marc-Olivier Méhu
Aiuto per la traduzione : Arnaldo La Scala




FONTI E CREDITI :

   NOAA